sensor_id;sensor_type;location;lat;lon;timestamp;P1;durP1;ratioP1;P2;durP2;ratioP2
15002;SDS011;7597;53.590;10.020;2022-11-15T00:01:52;52.33;;;28.97;;
15002;SDS011;7597;53.590;10.020;2022-11-15T00:04:19;46.57;;;27.93;;
15002;SDS011;7597;53.590;10.020;2022-11-15T00:06:46;51.87;;;29.60;;
15002;SDS011;7597;53.590;10.020;2022-11-15T00:09:12;51.77;;;29.30;;
15002;SDS011;7597;53.590;10.020;2022-11-15T00:11:39;49.53;;;28.80;;
15002;SDS011;7597;53.590;10.020;2022-11-15T00:14:06;50.80;;;28.63;;
15002;SDS011;7597;53.590;10.020;2022-11-15T00:16:33;52.90;;;29.60;;
15002;SDS011;7597;53.590;10.020;2022-11-15T00:19:00;50.00;;;28.30;;
15002;SDS011;7597;53.590;10.020;2022-11-15T00:21:27;48.77;;;28.40;;
15002;SDS011;7597;53.590;10.020;2022-11-15T00:23:54;50.10;;;29.30;;
15002;SDS011;7597;53.590;10.020;2022-11-15T00:26:21;50.23;;;29.37;;
15002;SDS011;7597;53.590;10.020;2022-11-15T00:28:50;55.00;;;29.67;;
15002;SDS011;7597;53.590;10.020;2022-11-15T00:31:15;51.73;;;30.50;;
15002;SDS011;7597;53.590;10.020;2022-11-15T00:33:42;49.83;;;28.87;;
15002;SDS011;7597;53.590;10.020;2022-11-15T00:36:09;52.87;;;28.83;;
15002;SDS011;7597;53.590;10.020;2022-11-15T00:38:37;50.73;;;30.10;;
15002;SDS011;7597;53.590;10.020;2022-11-15T00:41:03;49.50;;;29.37;;
15002;SDS011;7597;53.590;10.020;2022-11-15T00:43:30;50.53;;;29.83;;
15002;SDS011;7597;53.590;10.020;2022-11-15T00:45:56;50.87;;;28.07;;
15002;SDS011;7597;53.590;10.020;2022-11-15T00:48:24;46.43;;;27.57;;
15002;SDS011;7597;53.590;10.020;2022-11-15T00:50:50;47.57;;;27.83;;
15002;SDS011;7597;53.590;10.020;2022-11-15T00:53:17;49.80;;;28.13;;
15002;SDS011;7597;53.590;10.020;2022-11-15T00:55:44;48.87;;;28.70;;
15002;SDS011;7597;53.590;10.020;2022-11-15T00:58:10;48.67;;;28.93;;
15002;SDS011;7597;53.590;10.020;2022-11-15T01:00:37;46.63;;;27.63;;
15002;SDS011;7597;53.590;10.020;2022-11-15T01:03:04;45.70;;;27.27;;
15002;SDS011;7597;53.590;10.020;2022-11-15T01:05:30;48.20;;;28.27;;
15002;SDS011;7597;53.590;10.020;2022-11-15T01:07:58;45.07;;;26.87;;
15002;SDS011;7597;53.590;10.020;2022-11-15T01:10:25;48.63;;;26.70;;
15002;SDS011;7597;53.590;10.020;2022-11-15T01:12:51;42.67;;;26.47;;
15002;SDS011;7597;53.590;10.020;2022-11-15T01:15:18;43.37;;;26.03;;
15002;SDS011;7597;53.590;10.020;2022-11-15T01:17:45;42.40;;;25.87;;
15002;SDS011;7597;53.590;10.020;2022-11-15T01:20:11;44.10;;;25.87;;
15002;SDS011;7597;53.590;10.020;2022-11-15T01:22:38;42.87;;;25.60;;
15002;SDS011;7597;53.590;10.020;2022-11-15T01:25:05;40.77;;;25.43;;
15002;SDS011;7597;53.590;10.020;2022-11-15T01:27:32;44.37;;;26.83;;
15002;SDS011;7597;53.590;10.020;2022-11-15T01:29:59;45.53;;;27.10;;
15002;SDS011;7597;53.590;10.020;2022-11-15T01:32:26;42.30;;;25.63;;
15002;SDS011;7597;53.590;10.020;2022-11-15T01:34:53;40.53;;;25.30;;
15002;SDS011;7597;53.590;10.020;2022-11-15T01:37:20;41.63;;;24.70;;
15002;SDS011;7597;53.590;10.020;2022-11-15T01:39:46;41.17;;;25.60;;
15002;SDS011;7597;53.590;10.020;2022-11-15T01:42:13;44.27;;;27.73;;
15002;SDS011;7597;53.590;10.020;2022-11-15T01:44:41;42.13;;;27.10;;
15002;SDS011;7597;53.590;10.020;2022-11-15T01:47:15;40.90;;;25.03;;
15002;SDS011;7597;53.590;10.020;2022-11-15T01:49:42;42.90;;;25.77;;
15002;SDS011;7597;53.590;10.020;2022-11-15T01:52:08;42.60;;;24.97;;
15002;SDS011;7597;53.590;10.020;2022-11-15T01:54:33;45.27;;;26.50;;
15002;SDS011;7597;53.590;10.020;2022-11-15T01:57:02;41.77;;;25.30;;
15002;SDS011;7597;53.590;10.020;2022-11-15T01:59:27;46.97;;;26.43;;
15002;SDS011;7597;53.590;10.020;2022-11-15T02:01:55;42.90;;;25.40;;
15002;SDS011;7597;53.590;10.020;2022-11-15T02:04:24;44.13;;;25.63;;
15002;SDS011;7597;53.590;10.020;2022-11-15T02:06:50;43.23;;;26.97;;
15002;SDS011;7597;53.590;10.020;2022-11-15T02:09:17;44.37;;;26.53;;
15002;SDS011;7597;53.590;10.020;2022-11-15T02:11:43;43.73;;;26.57;;
15002;SDS011;7597;53.590;10.020;2022-11-15T02:14:11;46.57;;;27.57;;
15002;SDS011;7597;53.590;10.020;2022-11-15T02:16:42;45.33;;;26.03;;
15002;SDS011;7597;53.590;10.020;2022-11-15T02:19:25;45.23;;;27.47;;
15002;SDS011;7597;53.590;10.020;2022-11-15T02:22:00;47.90;;;27.27;;
15002;SDS011;7597;53.590;10.020;2022-11-15T02:24:33;45.63;;;26.43;;
15002;SDS011;7597;53.590;10.020;2022-11-15T02:27:03;43.20;;;26.33;;
15002;SDS011;7597;53.590;10.020;2022-11-15T02:29:30;48.37;;;26.70;;
15002;SDS011;7597;53.590;10.020;2022-11-15T02:32:16;44.83;;;26.70;;
15002;SDS011;7597;53.590;10.020;2022-11-15T02:34:50;47.17;;;26.43;;
15002;SDS011;7597;53.590;10.020;2022-11-15T02:37:23;41.43;;;26.50;;
15002;SDS011;7597;53.590;10.020;2022-11-15T02:40:06;43.70;;;25.50;;
15002;SDS011;7597;53.590;10.020;2022-11-15T02:42:30;44.63;;;25.37;;
15002;SDS011;7597;53.590;10.020;2022-11-15T02:45:02;44.50;;;25.83;;
15002;SDS011;7597;53.590;10.020;2022-11-15T02:47:27;48.87;;;27.00;;
15002;SDS011;7597;53.590;10.020;2022-11-15T02:49:55;45.10;;;26.63;;
15002;SDS011;7597;53.590;10.020;2022-11-15T02:52:22;48.23;;;26.23;;
15002;SDS011;7597;53.590;10.020;2022-11-15T03:00:01;43.10;;;25.07;;
15002;SDS011;7597;53.590;10.020;2022-11-15T03:02:31;44.80;;;24.93;;
15002;SDS011;7597;53.590;10.020;2022-11-15T03:05:09;43.73;;;24.43;;
15002;SDS011;7597;53.590;10.020;2022-11-15T03:07:34;41.03;;;24.17;;
15002;SDS011;7597;53.590;10.020;2022-11-15T03:10:02;44.17;;;25.00;;
15002;SDS011;7597;53.590;10.020;2022-11-15T03:12:30;38.13;;;23.93;;
15002;SDS011;7597;53.590;10.020;2022-11-15T03:14:58;40.67;;;24.00;;
15002;SDS011;7597;53.590;10.020;2022-11-15T03:17:26;42.87;;;25.23;;
15002;SDS011;7597;53.590;10.020;2022-11-15T03:19:54;40.33;;;23.93;;
15002;SDS011;7597;53.590;10.020;2022-11-15T03:22:21;41.70;;;24.77;;
15002;SDS011;7597;53.590;10.020;2022-11-15T03:24:47;42.37;;;24.80;;
15002;SDS011;7597;53.590;10.020;2022-11-15T03:27:15;40.37;;;23.80;;
15002;SDS011;7597;53.590;10.020;2022-11-15T03:29:41;39.70;;;23.90;;
15002;SDS011;7597;53.590;10.020;2022-11-15T03:32:07;40.43;;;23.83;;
15002;SDS011;7597;53.590;10.020;2022-11-15T03:37:17;41.63;;;24.03;;
15002;SDS011;7597;53.590;10.020;2022-11-15T03:39:45;41.83;;;23.67;;
15002;SDS011;7597;53.590;10.020;2022-11-15T03:42:18;38.20;;;23.10;;
15002;SDS011;7597;53.590;10.020;2022-11-15T03:47:38;37.80;;;21.93;;
15002;SDS011;7597;53.590;10.020;2022-11-15T03:50:15;38.93;;;22.63;;
15002;SDS011;7597;53.590;10.020;2022-11-15T03:52:41;39.83;;;22.80;;
15002;SDS011;7597;53.590;10.020;2022-11-15T03:55:09;38.77;;;22.90;;
15002;SDS011;7597;53.590;10.020;2022-11-15T03:57:34;37.23;;;22.47;;
15002;SDS011;7597;53.590;10.020;2022-11-15T04:00:02;35.70;;;22.43;;
15002;SDS011;7597;53.590;10.020;2022-11-15T04:02:28;37.17;;;23.10;;
15002;SDS011;7597;53.590;10.020;2022-11-15T04:04:54;39.50;;;22.63;;
15002;SDS011;7597;53.590;10.020;2022-11-15T04:07:21;37.90;;;22.57;;
15002;SDS011;7597;53.590;10.020;2022-11-15T04:09:48;36.87;;;21.67;;
15002;SDS011;7597;53.590;10.020;2022-11-15T04:12:20;32.83;;;21.23;;
15002;SDS011;7597;53.590;10.020;2022-11-15T04:14:52;35.33;;;22.27;;
15002;SDS011;7597;53.590;10.020;2022-11-15T04:17:19;38.77;;;22.30;;
15002;SDS011;7597;53.590;10.020;2022-11-15T04:19:46;36.13;;;21.17;;
15002;SDS011;7597;53.590;10.020;2022-11-15T04:22:18;40.87;;;21.93;;
15002;SDS011;7597;53.590;10.020;2022-11-15T04:24:50;32.77;;;21.70;;
15002;SDS011;7597;53.590;10.020;2022-11-15T04:27:17;37.10;;;21.83;;
15002;SDS011;7597;53.590;10.020;2022-11-15T04:29:43;34.07;;;21.27;;
15002;SDS011;7597;53.590;10.020;2022-11-15T04:32:10;36.40;;;21.63;;
15002;SDS011;7597;53.590;10.020;2022-11-15T04:34:37;38.20;;;22.77;;
15002;SDS011;7597;53.590;10.020;2022-11-15T04:37:04;38.10;;;22.83;;
15002;SDS011;7597;53.590;10.020;2022-11-15T04:39:36;37.83;;;22.00;;
15002;SDS011;7597;53.590;10.020;2022-11-15T04:42:03;34.73;;;22.40;;
15002;SDS011;7597;53.590;10.020;2022-11-15T04:44:29;38.50;;;22.13;;
15002;SDS011;7597;53.590;10.020;2022-11-15T04:46:56;35.20;;;22.60;;
15002;SDS011;7597;53.590;10.020;2022-11-15T04:49:23;33.63;;;21.97;;
15002;SDS011;7597;53.590;10.020;2022-11-15T04:51:50;32.47;;;21.10;;
15002;SDS011;7597;53.590;10.020;2022-11-15T04:54:17;36.93;;;22.27;;
15002;SDS011;7597;53.590;10.020;2022-11-15T04:56:44;34.27;;;20.63;;
15002;SDS011;7597;53.590;10.020;2022-11-15T04:59:10;31.67;;;20.93;;
15002;SDS011;7597;53.590;10.020;2022-11-15T05:01:37;34.20;;;21.63;;
15002;SDS011;7597;53.590;10.020;2022-11-15T05:04:04;35.17;;;21.50;;
15002;SDS011;7597;53.590;10.020;2022-11-15T05:06:36;34.27;;;20.83;;
15002;SDS011;7597;53.590;10.020;2022-11-15T05:09:03;32.73;;;21.23;;
15002;SDS011;7597;53.590;10.020;2022-11-15T05:11:29;33.20;;;20.43;;
15002;SDS011;7597;53.590;10.020;2022-11-15T05:13:56;35.87;;;20.80;;
15002;SDS011;7597;53.590;10.020;2022-11-15T05:16:23;31.87;;;19.90;;
15002;SDS011;7597;53.590;10.020;2022-11-15T05:18:51;31.53;;;20.00;;
15002;SDS011;7597;53.590;10.020;2022-11-15T05:21:17;29.50;;;19.50;;
15002;SDS011;7597;53.590;10.020;2022-11-15T05:23:44;31.90;;;21.00;;
15002;SDS011;7597;53.590;10.020;2022-11-15T05:26:10;29.67;;;19.93;;
15002;SDS011;7597;53.590;10.020;2022-11-15T05:28:37;29.60;;;20.03;;
15002;SDS011;7597;53.590;10.020;2022-11-15T05:31:05;27.77;;;19.33;;
15002;SDS011;7597;53.590;10.020;2022-11-15T05:33:31;28.00;;;18.20;;
15002;SDS011;7597;53.590;10.020;2022-11-15T05:36:00;31.03;;;20.60;;
15002;SDS011;7597;53.590;10.020;2022-11-15T05:38:24;30.63;;;19.03;;
15002;SDS011;7597;53.590;10.020;2022-11-15T05:40:51;30.17;;;18.53;;
15002;SDS011;7597;53.590;10.020;2022-11-15T05:43:18;29.83;;;18.60;;
15002;SDS011;7597;53.590;10.020;2022-11-15T05:45:44;29.33;;;19.53;;
15002;SDS011;7597;53.590;10.020;2022-11-15T05:48:11;30.63;;;18.53;;
15002;SDS011;7597;53.590;10.020;2022-11-15T05:50:38;30.93;;;18.63;;
15002;SDS011;7597;53.590;10.020;2022-11-15T05:53:04;32.43;;;18.53;;
15002;SDS011;7597;53.590;10.020;2022-11-15T05:55:31;26.90;;;18.23;;
15002;SDS011;7597;53.590;10.020;2022-11-15T05:57:58;26.03;;;17.63;;
15002;SDS011;7597;53.590;10.020;2022-11-15T06:00:24;25.03;;;17.77;;
15002;SDS011;7597;53.590;10.020;2022-11-15T06:02:51;25.37;;;17.50;;
15002;SDS011;7597;53.590;10.020;2022-11-15T06:05:18;28.67;;;18.00;;
15002;SDS011;7597;53.590;10.020;2022-11-15T06:07:44;27.37;;;17.67;;
15002;SDS011;7597;53.590;10.020;2022-11-15T06:10:11;26.30;;;18.50;;
15002;SDS011;7597;53.590;10.020;2022-11-15T06:12:37;27.83;;;17.17;;
15002;SDS011;7597;53.590;10.020;2022-11-15T06:15:04;24.87;;;16.63;;
15002;SDS011;7597;53.590;10.020;2022-11-15T06:17:31;24.67;;;16.63;;
15002;SDS011;7597;53.590;10.020;2022-11-15T06:19:58;29.77;;;17.83;;
15002;SDS011;7597;53.590;10.020;2022-11-15T06:22:24;24.73;;;17.00;;
15002;SDS011;7597;53.590;10.020;2022-11-15T06:24:51;25.33;;;17.30;;
15002;SDS011;7597;53.590;10.020;2022-11-15T06:27:18;26.07;;;17.97;;
15002;SDS011;7597;53.590;10.020;2022-11-15T06:29:44;24.70;;;17.73;;
15002;SDS011;7597;53.590;10.020;2022-11-15T06:32:11;26.87;;;17.27;;
15002;SDS011;7597;53.590;10.020;2022-11-15T06:34:38;25.67;;;17.23;;
15002;SDS011;7597;53.590;10.020;2022-11-15T06:37:04;25.90;;;17.93;;
15002;SDS011;7597;53.590;10.020;2022-11-15T06:39:31;26.67;;;17.40;;
15002;SDS011;7597;53.590;10.020;2022-11-15T06:41:58;25.77;;;16.97;;
15002;SDS011;7597;53.590;10.020;2022-11-15T06:44:24;28.43;;;18.13;;
15002;SDS011;7597;53.590;10.020;2022-11-15T06:46:51;25.70;;;18.60;;
15002;SDS011;7597;53.590;10.020;2022-11-15T06:49:18;25.03;;;17.17;;
15002;SDS011;7597;53.590;10.020;2022-11-15T06:51:45;24.83;;;16.53;;
15002;SDS011;7597;53.590;10.020;2022-11-15T06:54:12;26.60;;;17.03;;
15002;SDS011;7597;53.590;10.020;2022-11-15T06:56:38;28.10;;;18.00;;
15002;SDS011;7597;53.590;10.020;2022-11-15T06:59:05;27.67;;;17.37;;
15002;SDS011;7597;53.590;10.020;2022-11-15T07:01:32;26.60;;;18.33;;
15002;SDS011;7597;53.590;10.020;2022-11-15T07:03:58;28.83;;;18.00;;
15002;SDS011;7597;53.590;10.020;2022-11-15T07:06:25;27.57;;;18.43;;
15002;SDS011;7597;53.590;10.020;2022-11-15T07:08:52;29.00;;;18.53;;
15002;SDS011;7597;53.590;10.020;2022-11-15T07:11:19;25.63;;;17.27;;
15002;SDS011;7597;53.590;10.020;2022-11-15T07:13:46;28.80;;;17.67;;
15002;SDS011;7597;53.590;10.020;2022-11-15T07:16:12;27.13;;;17.87;;
15002;SDS011;7597;53.590;10.020;2022-11-15T07:18:39;26.93;;;17.50;;
15002;SDS011;7597;53.590;10.020;2022-11-15T07:21:07;23.67;;;16.97;;
15002;SDS011;7597;53.590;10.020;2022-11-15T07:23:35;23.90;;;16.65;;
15002;SDS011;7597;53.590;10.020;2022-11-15T07:26:00;25.23;;;16.47;;
15002;SDS011;7597;53.590;10.020;2022-11-15T07:28:27;25.97;;;16.30;;
15002;SDS011;7597;53.590;10.020;2022-11-15T07:30:53;28.10;;;17.97;;
15002;SDS011;7597;53.590;10.020;2022-11-15T07:33:20;26.33;;;17.17;;
15002;SDS011;7597;53.590;10.020;2022-11-15T07:35:47;24.67;;;16.50;;
15002;SDS011;7597;53.590;10.020;2022-11-15T07:38:14;24.53;;;16.33;;
15002;SDS011;7597;53.590;10.020;2022-11-15T07:40:41;23.03;;;15.77;;
15002;SDS011;7597;53.590;10.020;2022-11-15T07:43:08;24.93;;;16.83;;
15002;SDS011;7597;53.590;10.020;2022-11-15T07:45:39;22.27;;;15.37;;
15002;SDS011;7597;53.590;10.020;2022-11-15T07:48:01;21.83;;;16.73;;
15002;SDS011;7597;53.590;10.020;2022-11-15T07:50:28;23.30;;;16.10;;
15002;SDS011;7597;53.590;10.020;2022-11-15T07:52:55;26.73;;;16.10;;
15002;SDS011;7597;53.590;10.020;2022-11-15T07:55:22;20.83;;;15.57;;
15002;SDS011;7597;53.590;10.020;2022-11-15T07:57:48;19.57;;;13.97;;
15002;SDS011;7597;53.590;10.020;2022-11-15T08:00:14;20.70;;;15.40;;
15002;SDS011;7597;53.590;10.020;2022-11-15T08:02:42;24.80;;;17.27;;
15002;SDS011;7597;53.590;10.020;2022-11-15T08:05:08;24.60;;;17.17;;
15002;SDS011;7597;53.590;10.020;2022-11-15T08:07:35;21.53;;;15.83;;
15002;SDS011;7597;53.590;10.020;2022-11-15T08:10:02;23.48;;;16.80;;
15002;SDS011;7597;53.590;10.020;2022-11-15T08:12:28;27.73;;;17.43;;
15002;SDS011;7597;53.590;10.020;2022-11-15T08:14:55;22.60;;;16.27;;
15002;SDS011;7597;53.590;10.020;2022-11-15T08:17:23;23.13;;;16.33;;
15002;SDS011;7597;53.590;10.020;2022-11-15T08:19:49;23.35;;;15.77;;
15002;SDS011;7597;53.590;10.020;2022-11-15T08:22:16;22.47;;;15.33;;
15002;SDS011;7597;53.590;10.020;2022-11-15T08:24:43;23.20;;;16.37;;
15002;SDS011;7597;53.590;10.020;2022-11-15T08:27:09;20.67;;;15.57;;
15002;SDS011;7597;53.590;10.020;2022-11-15T08:29:36;23.63;;;17.10;;
15002;SDS011;7597;53.590;10.020;2022-11-15T08:32:02;26.27;;;17.20;;
15002;SDS011;7597;53.590;10.020;2022-11-15T08:34:29;28.83;;;18.90;;
15002;SDS011;7597;53.590;10.020;2022-11-15T08:36:56;25.93;;;18.13;;
15002;SDS011;7597;53.590;10.020;2022-11-15T08:39:22;24.67;;;16.93;;
15002;SDS011;7597;53.590;10.020;2022-11-15T08:41:49;24.83;;;16.87;;
15002;SDS011;7597;53.590;10.020;2022-11-15T08:44:16;25.03;;;17.27;;
15002;SDS011;7597;53.590;10.020;2022-11-15T08:46:45;22.40;;;16.13;;
15002;SDS011;7597;53.590;10.020;2022-11-15T08:49:09;25.33;;;17.60;;
15002;SDS011;7597;53.590;10.020;2022-11-15T08:51:36;26.10;;;16.62;;
15002;SDS011;7597;53.590;10.020;2022-11-15T08:54:02;23.53;;;16.43;;
15002;SDS011;7597;53.590;10.020;2022-11-15T08:56:29;22.83;;;16.53;;
15002;SDS011;7597;53.590;10.020;2022-11-15T08:58:56;28.08;;;16.17;;
15002;SDS011;7597;53.590;10.020;2022-11-15T09:01:22;24.10;;;16.70;;
15002;SDS011;7597;53.590;10.020;2022-11-15T09:03:50;24.95;;;17.00;;
15002;SDS011;7597;53.590;10.020;2022-11-15T09:06:17;25.97;;;17.97;;
15002;SDS011;7597;53.590;10.020;2022-11-15T09:08:43;25.00;;;16.97;;
15002;SDS011;7597;53.590;10.020;2022-11-15T09:11:10;23.10;;;16.52;;
15002;SDS011;7597;53.590;10.020;2022-11-15T09:13:37;21.43;;;15.30;;
15002;SDS011;7597;53.590;10.020;2022-11-15T09:16:04;21.83;;;15.93;;
15002;SDS011;7597;53.590;10.020;2022-11-15T09:18:31;23.35;;;16.85;;
15002;SDS011;7597;53.590;10.020;2022-11-15T09:20:57;22.15;;;16.02;;
15002;SDS011;7597;53.590;10.020;2022-11-15T09:23:24;22.90;;;16.13;;
15002;SDS011;7597;53.590;10.020;2022-11-15T09:25:51;22.00;;;15.63;;
15002;SDS011;7597;53.590;10.020;2022-11-15T09:28:17;22.17;;;15.37;;
15002;SDS011;7597;53.590;10.020;2022-11-15T09:30:44;22.27;;;16.07;;
15002;SDS011;7597;53.590;10.020;2022-11-15T09:33:11;21.67;;;16.00;;
15002;SDS011;7597;53.590;10.020;2022-11-15T09:35:38;23.55;;;15.77;;
15002;SDS011;7597;53.590;10.020;2022-11-15T09:38:05;21.10;;;15.10;;
15002;SDS011;7597;53.590;10.020;2022-11-15T09:40:32;18.67;;;15.13;;
15002;SDS011;7597;53.590;10.020;2022-11-15T09:43:08;21.92;;;14.63;;
15002;SDS011;7597;53.590;10.020;2022-11-15T09:45:37;21.87;;;15.38;;
15002;SDS011;7597;53.590;10.020;2022-11-15T09:48:17;20.52;;;15.38;;
15002;SDS011;7597;53.590;10.020;2022-11-15T09:50:56;18.15;;;14.27;;
15002;SDS011;7597;53.590;10.020;2022-11-15T09:53:27;19.67;;;14.57;;
15002;SDS011;7597;53.590;10.020;2022-11-15T09:55:59;19.75;;;14.60;;
15002;SDS011;7597;53.590;10.020;2022-11-15T09:58:27;18.87;;;14.10;;
15002;SDS011;7597;53.590;10.020;2022-11-15T10:00:58;19.00;;;14.18;;
15002;SDS011;7597;53.590;10.020;2022-11-15T10:03:28;17.80;;;14.27;;
15002;SDS011;7597;53.590;10.020;2022-11-15T10:05:56;20.90;;;14.87;;
15002;SDS011;7597;53.590;10.020;2022-11-15T10:11:00;22.35;;;14.50;;
15002;SDS011;7597;53.590;10.020;2022-11-15T10:13:28;17.33;;;14.02;;
15002;SDS011;7597;53.590;10.020;2022-11-15T10:15:54;21.52;;;14.02;;
15002;SDS011;7597;53.590;10.020;2022-11-15T10:18:29;17.42;;;13.82;;
15002;SDS011;7597;53.590;10.020;2022-11-15T10:20:56;18.10;;;14.18;;
15002;SDS011;7597;53.590;10.020;2022-11-15T10:23:22;19.87;;;13.95;;
15002;SDS011;7597;53.590;10.020;2022-11-15T10:25:50;19.33;;;14.82;;
15002;SDS011;7597;53.590;10.020;2022-11-15T10:28:22;20.12;;;13.73;;
15002;SDS011;7597;53.590;10.020;2022-11-15T10:30:49;18.75;;;13.27;;
15002;SDS011;7597;53.590;10.020;2022-11-15T10:33:36;18.20;;;13.23;;
15002;SDS011;7597;53.590;10.020;2022-11-15T10:36:16;20.15;;;13.68;;
15002;SDS011;7597;53.590;10.020;2022-11-15T10:38:52;18.20;;;13.32;;
15002;SDS011;7597;53.590;10.020;2022-11-15T10:41:22;16.52;;;13.20;;
15002;SDS011;7597;53.590;10.020;2022-11-15T10:46:30;16.40;;;13.18;;
15002;SDS011;7597;53.590;10.020;2022-11-15T10:49:10;16.92;;;13.05;;
15002;SDS011;7597;53.590;10.020;2022-11-15T10:51:48;17.12;;;12.75;;
15002;SDS011;7597;53.590;10.020;2022-11-15T10:54:18;14.63;;;11.77;;
15002;SDS011;7597;53.590;10.020;2022-11-15T10:56:42;17.15;;;12.50;;
15002;SDS011;7597;53.590;10.020;2022-11-15T10:59:14;14.85;;;12.32;;
15002;SDS011;7597;53.590;10.020;2022-11-15T11:01:36;15.25;;;11.20;;
15002;SDS011;7597;53.590;10.020;2022-11-15T11:04:04;15.13;;;11.88;;
15002;SDS011;7597;53.590;10.020;2022-11-15T11:06:31;13.62;;;11.32;;
15002;SDS011;7597;53.590;10.020;2022-11-15T11:08:59;13.48;;;10.45;;
15002;SDS011;7597;53.590;10.020;2022-11-15T11:11:28;13.82;;;10.13;;
15002;SDS011;7597;53.590;10.020;2022-11-15T11:13:52;14.38;;;10.90;;
15002;SDS011;7597;53.590;10.020;2022-11-15T11:16:23;12.52;;;10.70;;
15002;SDS011;7597;53.590;10.020;2022-11-15T11:18:56;14.90;;;10.20;;
15002;SDS011;7597;53.590;10.020;2022-11-15T11:21:43;12.02;;;9.88;;
15002;SDS011;7597;53.590;10.020;2022-11-15T11:24:21;14.80;;;10.88;;
15002;SDS011;7597;53.590;10.020;2022-11-15T11:26:50;12.57;;;10.27;;
15002;SDS011;7597;53.590;10.020;2022-11-15T11:29:25;11.75;;;9.77;;
15002;SDS011;7597;53.590;10.020;2022-11-15T11:32:08;13.65;;;10.35;;
15002;SDS011;7597;53.590;10.020;2022-11-15T11:34:43;12.88;;;9.68;;
15002;SDS011;7597;53.590;10.020;2022-11-15T11:37:03;12.43;;;10.02;;
15002;SDS011;7597;53.590;10.020;2022-11-15T11:39:39;13.07;;;10.38;;
15002;SDS011;7597;53.590;10.020;2022-11-15T11:42:10;12.30;;;9.90;;
15002;SDS011;7597;53.590;10.020;2022-11-15T11:44:48;11.55;;;9.38;;
15002;SDS011;7597;53.590;10.020;2022-11-15T11:47:13;11.63;;;9.68;;
15002;SDS011;7597;53.590;10.020;2022-11-15T11:49:42;12.82;;;9.63;;
15002;SDS011;7597;53.590;10.020;2022-11-15T11:52:18;12.40;;;10.15;;
15002;SDS011;7597;53.590;10.020;2022-11-15T11:55:03;12.37;;;10.18;;
15002;SDS011;7597;53.590;10.020;2022-11-15T11:57:48;11.02;;;9.32;;
15002;SDS011;7597;53.590;10.020;2022-11-15T12:00:15;11.93;;;9.90;;
15002;SDS011;7597;53.590;10.020;2022-11-15T12:02:45;11.90;;;9.23;;
15002;SDS011;7597;53.590;10.020;2022-11-15T12:05:14;15.35;;;10.90;;
15002;SDS011;7597;53.590;10.020;2022-11-15T12:07:43;12.70;;;10.15;;
15002;SDS011;7597;53.590;10.020;2022-11-15T12:10:17;11.68;;;9.90;;
15002;SDS011;7597;53.590;10.020;2022-11-15T12:12:46;13.98;;;9.73;;
15002;SDS011;7597;53.590;10.020;2022-11-15T12:15:12;13.10;;;10.30;;
15002;SDS011;7597;53.590;10.020;2022-11-15T12:17:39;13.27;;;9.45;;
15002;SDS011;7597;53.590;10.020;2022-11-15T12:20:14;13.30;;;9.82;;
15002;SDS011;7597;53.590;10.020;2022-11-15T12:22:43;13.35;;;10.57;;
15002;SDS011;7597;53.590;10.020;2022-11-15T12:25:18;12.35;;;10.30;;
15002;SDS011;7597;53.590;10.020;2022-11-15T12:27:55;13.90;;;10.38;;
15002;SDS011;7597;53.590;10.020;2022-11-15T12:30:23;12.85;;;10.10;;
15002;SDS011;7597;53.590;10.020;2022-11-15T12:32:54;13.45;;;9.18;;
15002;SDS011;7597;53.590;10.020;2022-11-15T12:35:25;10.38;;;9.13;;
15002;SDS011;7597;53.590;10.020;2022-11-15T12:37:53;10.63;;;9.45;;
15002;SDS011;7597;53.590;10.020;2022-11-15T12:40:22;10.65;;;8.82;;
15002;SDS011;7597;53.590;10.020;2022-11-15T12:45:28;11.45;;;9.27;;
15002;SDS011;7597;53.590;10.020;2022-11-15T12:47:54;14.95;;;9.68;;
15002;SDS011;7597;53.590;10.020;2022-11-15T12:55:37;12.18;;;9.05;;
15002;SDS011;7597;53.590;10.020;2022-11-15T12:58:24;14.00;;;9.75;;
15002;SDS011;7597;53.590;10.020;2022-11-15T13:00:45;13.98;;;9.55;;
15002;SDS011;7597;53.590;10.020;2022-11-15T13:03:16;14.38;;;9.40;;
15002;SDS011;7597;53.590;10.020;2022-11-15T13:05:51;12.15;;;9.55;;
15002;SDS011;7597;53.590;10.020;2022-11-15T13:08:32;15.80;;;10.60;;
15002;SDS011;7597;53.590;10.020;2022-11-15T13:10:39;10.77;;;8.88;;
15002;SDS011;7597;53.590;10.020;2022-11-15T13:13:08;11.75;;;9.20;;
15002;SDS011;7597;53.590;10.020;2022-11-15T13:15:38;10.95;;;9.15;;
15002;SDS011;7597;53.590;10.020;2022-11-15T13:20:59;12.77;;;9.43;;
15002;SDS011;7597;53.590;10.020;2022-11-15T13:23:26;12.82;;;9.07;;
15002;SDS011;7597;53.590;10.020;2022-11-15T13:26:12;12.57;;;9.13;;
15002;SDS011;7597;53.590;10.020;2022-11-15T13:28:42;14.10;;;9.52;;
15002;SDS011;7597;53.590;10.020;2022-11-15T13:33:40;12.60;;;9.43;;
15002;SDS011;7597;53.590;10.020;2022-11-15T13:36:09;14.05;;;9.32;;
15002;SDS011;7597;53.590;10.020;2022-11-15T13:38:39;12.73;;;9.75;;
15002;SDS011;7597;53.590;10.020;2022-11-15T13:41:13;11.57;;;8.65;;
15002;SDS011;7597;53.590;10.020;2022-11-15T13:43:37;11.15;;;9.02;;
15002;SDS011;7597;53.590;10.020;2022-11-15T13:46:09;12.27;;;10.05;;
15002;SDS011;7597;53.590;10.020;2022-11-15T13:48:36;12.20;;;9.90;;
15002;SDS011;7597;53.590;10.020;2022-11-15T13:51:04;11.73;;;8.95;;
15002;SDS011;7597;53.590;10.020;2022-11-15T13:53:31;10.27;;;8.25;;
15002;SDS011;7597;53.590;10.020;2022-11-15T13:55:58;12.20;;;9.23;;
15002;SDS011;7597;53.590;10.020;2022-11-15T13:58:24;10.32;;;8.88;;
15002;SDS011;7597;53.590;10.020;2022-11-15T14:00:58;10.25;;;8.98;;
15002;SDS011;7597;53.590;10.020;2022-11-15T14:03:19;12.75;;;9.40;;
15002;SDS011;7597;53.590;10.020;2022-11-15T14:06:02;11.18;;;9.15;;
15002;SDS011;7597;53.590;10.020;2022-11-15T14:08:26;12.35;;;8.98;;
15002;SDS011;7597;53.590;10.020;2022-11-15T14:13:31;9.98;;;8.60;;
15002;SDS011;7597;53.590;10.020;2022-11-15T14:16:15;11.35;;;8.93;;
15002;SDS011;7597;53.590;10.020;2022-11-15T14:18:52;10.57;;;8.68;;
15002;SDS011;7597;53.590;10.020;2022-11-15T14:21:19;12.02;;;9.18;;
15002;SDS011;7597;53.590;10.020;2022-11-15T14:23:45;12.18;;;9.20;;
15002;SDS011;7597;53.590;10.020;2022-11-15T14:28:51;10.43;;;8.95;;
15002;SDS011;7597;53.590;10.020;2022-11-15T14:31:18;11.00;;;9.63;;
15002;SDS011;7597;53.590;10.020;2022-11-15T14:33:45;11.75;;;8.30;;
15002;SDS011;7597;53.590;10.020;2022-11-15T14:36:13;11.55;;;9.52;;
15002;SDS011;7597;53.590;10.020;2022-11-15T14:38:38;10.15;;;9.02;;
15002;SDS011;7597;53.590;10.020;2022-11-15T14:41:05;12.27;;;9.38;;
15002;SDS011;7597;53.590;10.020;2022-11-15T14:43:32;11.90;;;9.35;;
15002;SDS011;7597;53.590;10.020;2022-11-15T14:45:58;11.07;;;9.02;;
15002;SDS011;7597;53.590;10.020;2022-11-15T14:48:25;10.52;;;8.98;;
15002;SDS011;7597;53.590;10.020;2022-11-15T14:50:52;9.27;;;8.20;;
15002;SDS011;7597;53.590;10.020;2022-11-15T14:53:18;9.30;;;8.30;;
15002;SDS011;7597;53.590;10.020;2022-11-15T14:55:45;12.43;;;8.82;;
15002;SDS011;7597;53.590;10.020;2022-11-15T14:58:12;11.05;;;8.93;;
15002;SDS011;7597;53.590;10.020;2022-11-15T15:00:40;12.15;;;9.25;;
15002;SDS011;7597;53.590;10.020;2022-11-15T15:03:06;12.48;;;9.25;;
15002;SDS011;7597;53.590;10.020;2022-11-15T15:05:34;12.32;;;9.40;;